sensor_id;sensor_type;location;lat;lon;timestamp;pressure;altitude;pressure_sealevel;temperature;humidity
14838;BME280;7510;59.296;18.106;2022-11-04T00:01:31;100796.00;;;18.61;60.28
14838;BME280;7510;59.296;18.106;2022-11-04T00:03:57;100802.94;;;18.82;59.72
14838;BME280;7510;59.296;18.106;2022-11-04T00:06:23;100818.91;;;18.70;60.24
14838;BME280;7510;59.296;18.106;2022-11-04T00:08:53;100808.75;;;18.76;59.82
14838;BME280;7510;59.296;18.106;2022-11-04T00:11:19;100825.22;;;18.23;62.33
14838;BME280;7510;59.296;18.106;2022-11-04T00:14:05;100808.09;;;18.89;60.18
14838;BME280;7510;59.296;18.106;2022-11-04T00:16:31;100795.84;;;19.15;58.68
14838;BME280;7510;59.296;18.106;2022-11-04T00:19:15;100804.38;;;19.13;58.49
14838;BME280;7510;59.296;18.106;2022-11-04T00:21:41;100820.75;;;18.41;60.78
14838;BME280;7510;59.296;18.106;2022-11-04T00:24:25;100747.59;;;18.09;60.91
14838;BME280;7510;59.296;18.106;2022-11-04T00:27:14;100806.47;;;18.44;61.17
14838;BME280;7510;59.296;18.106;2022-11-04T00:29:58;100797.47;;;18.82;59.43
14838;BME280;7510;59.296;18.106;2022-11-04T00:32:24;100815.22;;;18.46;60.40
14838;BME280;7510;59.296;18.106;2022-11-04T00:35:10;100810.91;;;18.40;60.83
14838;BME280;7510;59.296;18.106;2022-11-04T00:37:40;100816.06;;;17.89;63.30
14838;BME280;7510;59.296;18.106;2022-11-04T00:40:07;100810.06;;;17.77;64.27
14838;BME280;7510;59.296;18.106;2022-11-04T00:42:33;100800.09;;;18.11;62.06
14838;BME280;7510;59.296;18.106;2022-11-04T00:44:59;100799.31;;;18.53;60.78
14838;BME280;7510;59.296;18.106;2022-11-04T00:47:25;100799.06;;;18.88;59.96
14838;BME280;7510;59.296;18.106;2022-11-04T00:49:50;100797.97;;;19.46;57.80
14838;BME280;7510;59.296;18.106;2022-11-04T00:52:16;100795.59;;;19.39;57.65
14838;BME280;7510;59.296;18.106;2022-11-04T00:54:41;100795.91;;;18.71;59.97
14838;BME280;7510;59.296;18.106;2022-11-04T00:57:11;100796.72;;;19.05;58.98
14838;BME280;7510;59.296;18.106;2022-11-04T00:59:37;100810.06;;;18.40;61.26
14838;BME280;7510;59.296;18.106;2022-11-04T01:02:04;100811.75;;;18.74;59.90
14838;BME280;7510;59.296;18.106;2022-11-04T01:04:30;100808.66;;;18.47;60.65
14838;BME280;7510;59.296;18.106;2022-11-04T01:06:55;100809.84;;;18.75;59.76
14838;BME280;7510;59.296;18.106;2022-11-04T01:09:21;100807.50;;;18.05;62.47
14838;BME280;7510;59.296;18.106;2022-11-04T01:11:47;100799.91;;;18.45;61.00
14838;BME280;7510;59.296;18.106;2022-11-04T01:14:13;100745.16;;;18.50;59.71
14838;BME280;7510;59.296;18.106;2022-11-04T01:16:38;100799.03;;;18.93;59.27
14838;BME280;7510;59.296;18.106;2022-11-04T01:19:04;100803.97;;;18.00;62.66
14838;BME280;7510;59.296;18.106;2022-11-04T01:21:30;100808.59;;;17.99;63.13
14838;BME280;7510;59.296;18.106;2022-11-04T01:23:55;100798.13;;;18.64;60.64
14838;BME280;7510;59.296;18.106;2022-11-04T01:26:24;100794.84;;;18.67;60.46
14838;BME280;7510;59.296;18.106;2022-11-04T01:28:51;100798.44;;;18.96;59.50
14838;BME280;7510;59.296;18.106;2022-11-04T01:31:20;100795.41;;;18.64;60.64
14838;BME280;7510;59.296;18.106;2022-11-04T01:33:47;100801.47;;;19.28;58.05
14838;BME280;7510;59.296;18.106;2022-11-04T01:36:13;100785.44;;;19.12;57.86
14838;BME280;7510;59.296;18.106;2022-11-04T01:38:38;100793.41;;;19.13;57.91
14838;BME280;7510;59.296;18.106;2022-11-04T01:41:05;100801.31;;;19.10;58.29
14838;BME280;7510;59.296;18.106;2022-11-04T01:43:50;100797.88;;;19.56;56.68
14838;BME280;7510;59.296;18.106;2022-11-04T01:46:30;100785.13;;;19.18;57.69
14838;BME280;7510;59.296;18.106;2022-11-04T01:49:02;100795.06;;;19.04;58.01
14838;BME280;7510;59.296;18.106;2022-11-04T01:51:31;100801.00;;;19.21;57.61
14838;BME280;7510;59.296;18.106;2022-11-04T01:53:59;100795.22;;;18.51;59.54
14838;BME280;7510;59.296;18.106;2022-11-04T01:56:26;100791.91;;;18.92;58.24
14838;BME280;7510;59.296;18.106;2022-11-04T01:58:54;100808.50;;;18.72;59.00
14838;BME280;7510;59.296;18.106;2022-11-04T02:01:22;100791.25;;;18.72;58.59
14838;BME280;7510;59.296;18.106;2022-11-04T02:03:52;100807.50;;;18.53;59.38
14838;BME280;7510;59.296;18.106;2022-11-04T02:06:20;100786.19;;;18.89;57.76
14838;BME280;7510;59.296;18.106;2022-11-04T02:08:46;100799.19;;;18.73;58.55
14838;BME280;7510;59.296;18.106;2022-11-04T02:11:12;100794.50;;;18.74;58.06
14838;BME280;7510;59.296;18.106;2022-11-04T02:13:58;100797.69;;;18.52;58.56
14838;BME280;7510;59.296;18.106;2022-11-04T02:16:39;100789.19;;;18.54;58.49
14838;BME280;7510;59.296;18.106;2022-11-04T02:27:10;100783.94;;;18.62;58.52
14838;BME280;7510;59.296;18.106;2022-11-04T02:29:44;100787.88;;;18.46;58.60
14838;BME280;7510;59.296;18.106;2022-11-04T02:32:15;100788.72;;;18.80;57.77
14838;BME280;7510;59.296;18.106;2022-11-04T02:43:08;100788.88;;;18.60;58.58
14838;BME280;7510;59.296;18.106;2022-11-04T02:45:48;100785.75;;;18.33;59.31
14838;BME280;7510;59.296;18.106;2022-11-04T02:48:38;100781.84;;;19.16;56.95
14838;BME280;7510;59.296;18.106;2022-11-04T02:53:46;100769.16;;;19.25;56.23
14838;BME280;7510;59.296;18.106;2022-11-04T02:56:13;100768.91;;;19.50;56.06
14838;BME280;7510;59.296;18.106;2022-11-04T02:58:44;100776.78;;;19.56;55.44
14838;BME280;7510;59.296;18.106;2022-11-04T03:01:12;100771.03;;;18.96;57.42
14838;BME280;7510;59.296;18.106;2022-11-04T03:03:44;100751.22;;;19.09;56.80
14838;BME280;7510;59.296;18.106;2022-11-04T03:06:13;100772.75;;;18.92;57.83
14838;BME280;7510;59.296;18.106;2022-11-04T03:08:45;100772.13;;;19.00;57.84
14838;BME280;7510;59.296;18.106;2022-11-04T03:11:17;100773.50;;;18.98;57.94
14838;BME280;7510;59.296;18.106;2022-11-04T03:16:49;100770.66;;;18.79;58.33
14838;BME280;7510;59.296;18.106;2022-11-04T03:22:10;100769.06;;;18.73;58.21
14838;BME280;7510;59.296;18.106;2022-11-04T03:24:37;100768.09;;;18.54;59.08
14838;BME280;7510;59.296;18.106;2022-11-04T03:29:55;100764.72;;;18.29;59.52
14838;BME280;7510;59.296;18.106;2022-11-04T03:35:25;100762.88;;;18.91;57.09
14838;BME280;7510;59.296;18.106;2022-11-04T03:37:52;100732.25;;;18.56;57.09
14838;BME280;7510;59.296;18.106;2022-11-04T03:40:19;100745.56;;;18.67;57.26
14838;BME280;7510;59.296;18.106;2022-11-04T03:42:49;100752.53;;;18.50;57.63
14838;BME280;7510;59.296;18.106;2022-11-04T03:45:17;100772.13;;;18.67;57.12
14838;BME280;7510;59.296;18.106;2022-11-04T03:47:43;100761.41;;;18.70;56.63
14838;BME280;7510;59.296;18.106;2022-11-04T03:50:27;100775.88;;;18.42;57.82
14838;BME280;7510;59.296;18.106;2022-11-04T03:52:53;100783.00;;;18.38;57.88
14838;BME280;7510;59.296;18.106;2022-11-04T03:55:22;100763.84;;;18.38;57.91
14838;BME280;7510;59.296;18.106;2022-11-04T03:57:59;100761.59;;;18.45;57.78
14838;BME280;7510;59.296;18.106;2022-11-04T04:00:33;100763.22;;;18.51;57.72
14838;BME280;7510;59.296;18.106;2022-11-04T04:05:58;100766.34;;;18.35;58.00
14838;BME280;7510;59.296;18.106;2022-11-04T04:08:46;100768.69;;;18.51;57.32
14838;BME280;7510;59.296;18.106;2022-11-04T04:21:32;100771.63;;;18.60;56.68
14838;BME280;7510;59.296;18.106;2022-11-04T04:24:04;100758.00;;;18.50;57.09
14838;BME280;7510;59.296;18.106;2022-11-04T04:26:50;100740.81;;;18.44;56.92
14838;BME280;7510;59.296;18.106;2022-11-04T04:29:37;100777.09;;;18.60;56.77
14838;BME280;7510;59.296;18.106;2022-11-04T04:32:04;100763.00;;;18.38;57.79
14838;BME280;7510;59.296;18.106;2022-11-04T04:34:31;100767.28;;;18.54;56.86
14838;BME280;7510;59.296;18.106;2022-11-04T04:37:21;100776.44;;;18.39;58.06
14838;BME280;7510;59.296;18.106;2022-11-04T04:39:51;100720.25;;;18.09;58.12
14838;BME280;7510;59.296;18.106;2022-11-04T04:42:37;100770.69;;;18.74;57.06
14838;BME280;7510;59.296;18.106;2022-11-04T04:45:26;100752.09;;;18.71;56.05
14838;BME280;7510;59.296;18.106;2022-11-04T04:47:55;100744.56;;;18.53;56.21
14838;BME280;7510;59.296;18.106;2022-11-04T04:50:21;100767.81;;;18.08;58.20
14838;BME280;7510;59.296;18.106;2022-11-04T04:52:52;100738.09;;;17.96;58.00
14838;BME280;7510;59.296;18.106;2022-11-04T04:55:17;100769.63;;;17.79;58.36
14838;BME280;7510;59.296;18.106;2022-11-04T04:57:43;100780.16;;;18.05;58.08
14838;BME280;7510;59.296;18.106;2022-11-04T05:00:12;100784.28;;;17.98;58.75
14838;BME280;7510;59.296;18.106;2022-11-04T05:02:38;100775.59;;;18.39;57.20
14838;BME280;7510;59.296;18.106;2022-11-04T05:05:04;100772.44;;;18.60;56.03
14838;BME280;7510;59.296;18.106;2022-11-04T05:07:29;100778.13;;;18.30;57.33
14838;BME280;7510;59.296;18.106;2022-11-04T05:09:55;100773.31;;;18.08;58.59
14838;BME280;7510;59.296;18.106;2022-11-04T05:12:20;100761.81;;;18.11;58.23
14838;BME280;7510;59.296;18.106;2022-11-04T05:14:46;100772.16;;;18.14;58.51
14838;BME280;7510;59.296;18.106;2022-11-04T05:17:11;100747.03;;;18.12;57.33
14838;BME280;7510;59.296;18.106;2022-11-04T05:19:37;100778.69;;;18.23;57.36
14838;BME280;7510;59.296;18.106;2022-11-04T05:22:03;100772.44;;;18.60;56.21
14838;BME280;7510;59.296;18.106;2022-11-04T05:24:29;100770.59;;;18.51;55.69
14838;BME280;7510;59.296;18.106;2022-11-04T05:26:54;100771.75;;;18.40;55.96
14838;BME280;7510;59.296;18.106;2022-11-04T05:29:20;100773.56;;;18.59;54.82
14838;BME280;7510;59.296;18.106;2022-11-04T05:31:46;100752.16;;;18.18;55.95
14838;BME280;7510;59.296;18.106;2022-11-04T05:34:12;100773.81;;;18.15;56.67
14838;BME280;7510;59.296;18.106;2022-11-04T05:36:38;100771.03;;;18.29;55.73
14838;BME280;7510;59.296;18.106;2022-11-04T05:39:04;100771.72;;;17.97;56.76
14838;BME280;7510;59.296;18.106;2022-11-04T05:41:30;100776.75;;;17.70;58.32
14838;BME280;7510;59.296;18.106;2022-11-04T05:43:58;100771.34;;;17.60;58.75
14838;BME280;7510;59.296;18.106;2022-11-04T05:46:24;100773.31;;;17.35;59.54
14838;BME280;7510;59.296;18.106;2022-11-04T05:48:50;100775.22;;;17.39;60.32
14838;BME280;7510;59.296;18.106;2022-11-04T05:51:18;100749.53;;;17.40;59.69
14838;BME280;7510;59.296;18.106;2022-11-04T05:53:44;100773.03;;;17.41;60.27
14838;BME280;7510;59.296;18.106;2022-11-04T05:56:10;100766.47;;;17.37;60.21
14838;BME280;7510;59.296;18.106;2022-11-04T05:58:35;100737.50;;;17.26;60.12
14838;BME280;7510;59.296;18.106;2022-11-04T06:03:55;100753.91;;;17.16;61.26
14838;BME280;7510;59.296;18.106;2022-11-04T06:06:23;100767.97;;;17.73;59.91
14838;BME280;7510;59.296;18.106;2022-11-04T06:08:49;100772.50;;;17.14;61.61
14838;BME280;7510;59.296;18.106;2022-11-04T06:11:15;100772.22;;;17.11;61.67
14838;BME280;7510;59.296;18.106;2022-11-04T06:13:40;100770.59;;;17.10;61.95
14838;BME280;7510;59.296;18.106;2022-11-04T06:16:06;100746.25;;;17.28;61.27
14838;BME280;7510;59.296;18.106;2022-11-04T06:18:33;100763.44;;;17.38;60.80
14838;BME280;7510;59.296;18.106;2022-11-04T06:23:41;100775.53;;;17.96;58.92
14838;BME280;7510;59.296;18.106;2022-11-04T06:26:07;100758.03;;;17.97;58.65
14838;BME280;7510;59.296;18.106;2022-11-04T06:28:33;100771.16;;;18.00;58.73
14838;BME280;7510;59.296;18.106;2022-11-04T06:31:01;100772.66;;;17.67;59.63
14838;BME280;7510;59.296;18.106;2022-11-04T06:33:28;100775.63;;;17.81;58.88
14838;BME280;7510;59.296;18.106;2022-11-04T06:36:01;100777.47;;;17.90;58.95
14838;BME280;7510;59.296;18.106;2022-11-04T06:38:32;100767.50;;;18.24;57.89
14838;BME280;7510;59.296;18.106;2022-11-04T06:40:58;100752.13;;;18.33;57.36
14838;BME280;7510;59.296;18.106;2022-11-04T06:43:23;100755.72;;;18.24;57.65
14838;BME280;7510;59.296;18.106;2022-11-04T06:45:59;100765.09;;;18.56;56.45
14838;BME280;7510;59.296;18.106;2022-11-04T06:48:25;100772.41;;;18.65;56.30
14838;BME280;7510;59.296;18.106;2022-11-04T06:50:51;100769.91;;;18.30;56.87
14838;BME280;7510;59.296;18.106;2022-11-04T06:53:17;100768.16;;;18.44;56.29
14838;BME280;7510;59.296;18.106;2022-11-04T06:55:43;100770.41;;;18.76;55.44
14838;BME280;7510;59.296;18.106;2022-11-04T06:58:09;100763.34;;;19.03;54.86
14838;BME280;7510;59.296;18.106;2022-11-04T07:00:34;100769.78;;;19.17;54.83
14838;BME280;7510;59.296;18.106;2022-11-04T07:03:00;100774.16;;;18.85;54.67
14838;BME280;7510;59.296;18.106;2022-11-04T07:05:25;100768.00;;;18.69;55.15
14838;BME280;7510;59.296;18.106;2022-11-04T07:07:51;100768.59;;;18.23;56.39
14838;BME280;7510;59.296;18.106;2022-11-04T07:10:16;100776.56;;;18.10;57.08
14838;BME280;7510;59.296;18.106;2022-11-04T07:12:42;100777.53;;;18.33;56.46
14838;BME280;7510;59.296;18.106;2022-11-04T07:15:08;100780.03;;;18.68;55.77
14838;BME280;7510;59.296;18.106;2022-11-04T07:17:35;100788.28;;;18.63;55.01
14838;BME280;7510;59.296;18.106;2022-11-04T07:20:00;100743.31;;;19.03;53.92
14838;BME280;7510;59.296;18.106;2022-11-04T07:22:26;100785.19;;;19.08;54.38
14838;BME280;7510;59.296;18.106;2022-11-04T07:24:53;100775.97;;;18.99;54.56
14838;BME280;7510;59.296;18.106;2022-11-04T07:27:18;100785.28;;;18.98;54.94
14838;BME280;7510;59.296;18.106;2022-11-04T07:29:44;100777.13;;;19.50;53.49
14838;BME280;7510;59.296;18.106;2022-11-04T07:32:09;100777.91;;;19.50;52.67
14838;BME280;7510;59.296;18.106;2022-11-04T07:34:34;100786.34;;;20.06;51.33
14838;BME280;7510;59.296;18.106;2022-11-04T07:37:00;100737.38;;;20.49;49.93
14838;BME280;7510;59.296;18.106;2022-11-04T07:39:25;100788.16;;;21.34;48.25
14838;BME280;7510;59.296;18.106;2022-11-04T07:41:51;100784.78;;;21.95;46.68
14838;BME280;7510;59.296;18.106;2022-11-04T07:44:16;100778.22;;;21.38;47.26
14838;BME280;7510;59.296;18.106;2022-11-04T07:46:41;100779.41;;;21.45;47.87
14838;BME280;7510;59.296;18.106;2022-11-04T07:49:07;100779.47;;;21.85;46.66
14838;BME280;7510;59.296;18.106;2022-11-04T07:51:33;100767.34;;;23.06;44.65
14838;BME280;7510;59.296;18.106;2022-11-04T07:53:58;100763.22;;;22.60;44.56
14838;BME280;7510;59.296;18.106;2022-11-04T07:56:25;100775.84;;;22.96;43.99
14838;BME280;7510;59.296;18.106;2022-11-04T07:58:52;100770.72;;;24.02;42.74
14838;BME280;7510;59.296;18.106;2022-11-04T08:01:21;100776.19;;;23.25;43.05
14838;BME280;7510;59.296;18.106;2022-11-04T08:03:48;100780.84;;;22.94;43.96
14838;BME280;7510;59.296;18.106;2022-11-04T08:06:15;100787.00;;;22.91;43.76
14838;BME280;7510;59.296;18.106;2022-11-04T08:08:41;100778.91;;;22.73;44.17
14838;BME280;7510;59.296;18.106;2022-11-04T08:11:13;100785.72;;;22.75;44.04
14838;BME280;7510;59.296;18.106;2022-11-04T08:13:39;100769.75;;;23.68;41.99
14838;BME280;7510;59.296;18.106;2022-11-04T08:16:07;100782.88;;;23.62;42.38
14838;BME280;7510;59.296;18.106;2022-11-04T08:18:34;100772.72;;;22.89;43.24
14838;BME280;7510;59.296;18.106;2022-11-04T08:21:00;100779.34;;;22.66;43.70
14838;BME280;7510;59.296;18.106;2022-11-04T08:23:27;100779.47;;;23.57;42.30
14838;BME280;7510;59.296;18.106;2022-11-04T08:25:52;100761.81;;;24.14;40.60
14838;BME280;7510;59.296;18.106;2022-11-04T08:28:18;100772.63;;;23.55;42.18
14838;BME280;7510;59.296;18.106;2022-11-04T08:30:54;100781.22;;;22.57;43.62
14838;BME280;7510;59.296;18.106;2022-11-04T08:33:20;100753.13;;;22.33;44.16
14838;BME280;7510;59.296;18.106;2022-11-04T08:35:46;100768.94;;;22.85;43.71
14838;BME280;7510;59.296;18.106;2022-11-04T08:38:12;100769.09;;;21.56;45.33
14838;BME280;7510;59.296;18.106;2022-11-04T08:40:37;100767.69;;;20.94;47.49
14838;BME280;7510;59.296;18.106;2022-11-04T08:43:03;100770.19;;;21.82;45.67
14838;BME280;7510;59.296;18.106;2022-11-04T08:45:28;100758.34;;;20.45;48.75
14838;BME280;7510;59.296;18.106;2022-11-04T08:47:54;100769.75;;;20.15;50.12
14838;BME280;7510;59.296;18.106;2022-11-04T08:50:19;100748.81;;;19.54;51.79
14838;BME280;7510;59.296;18.106;2022-11-04T08:52:46;100746.78;;;19.65;51.32
14838;BME280;7510;59.296;18.106;2022-11-04T08:55:11;100762.38;;;19.88;50.89
14838;BME280;7510;59.296;18.106;2022-11-04T08:57:37;100753.81;;;18.62;54.74
14838;BME280;7510;59.296;18.106;2022-11-04T09:00:03;100749.03;;;19.11;53.39
14838;BME280;7510;59.296;18.106;2022-11-04T09:02:29;100761.38;;;19.84;51.39
14838;BME280;7510;59.296;18.106;2022-11-04T09:04:54;100751.91;;;19.48;52.94
14838;BME280;7510;59.296;18.106;2022-11-04T09:07:20;100751.66;;;19.91;51.64
14838;BME280;7510;59.296;18.106;2022-11-04T09:09:45;100751.78;;;19.34;53.09
14838;BME280;7510;59.296;18.106;2022-11-04T09:12:11;100761.53;;;19.45;52.79
14838;BME280;7510;59.296;18.106;2022-11-04T09:14:36;100753.13;;;19.84;52.10
14838;BME280;7510;59.296;18.106;2022-11-04T09:17:02;100749.75;;;19.45;53.14
14838;BME280;7510;59.296;18.106;2022-11-04T09:19:27;100756.50;;;19.29;53.50
14838;BME280;7510;59.296;18.106;2022-11-04T09:21:52;100737.28;;;19.06;53.95
14838;BME280;7510;59.296;18.106;2022-11-04T09:24:18;100756.94;;;19.64;52.50
14838;BME280;7510;59.296;18.106;2022-11-04T09:26:44;100755.94;;;20.20;51.28
14838;BME280;7510;59.296;18.106;2022-11-04T09:29:09;100756.66;;;20.07;50.56
14838;BME280;7510;59.296;18.106;2022-11-04T09:31:35;100762.19;;;19.61;51.57
14838;BME280;7510;59.296;18.106;2022-11-04T09:34:01;100766.06;;;19.03;53.24
14838;BME280;7510;59.296;18.106;2022-11-04T09:36:27;100766.34;;;18.73;53.46
14838;BME280;7510;59.296;18.106;2022-11-04T09:38:53;100757.50;;;19.38;51.84
14838;BME280;7510;59.296;18.106;2022-11-04T09:44:38;100772.91;;;19.81;50.37
14838;BME280;7510;59.296;18.106;2022-11-04T09:46:43;100769.69;;;18.99;51.68
14838;BME280;7510;59.296;18.106;2022-11-04T09:49:11;100764.03;;;18.52;53.38
14838;BME280;7510;59.296;18.106;2022-11-04T09:51:37;100769.41;;;19.28;52.09
14838;BME280;7510;59.296;18.106;2022-11-04T09:54:21;100776.38;;;19.16;51.65
14838;BME280;7510;59.296;18.106;2022-11-04T09:56:49;100774.16;;;19.18;51.10
14838;BME280;7510;59.296;18.106;2022-11-04T09:59:25;100781.66;;;18.36;53.27
14838;BME280;7510;59.296;18.106;2022-11-04T10:07:44;100763.50;;;18.83;51.65
14838;BME280;7510;59.296;18.106;2022-11-04T10:10:52;100774.00;;;19.05;50.69
14838;BME280;7510;59.296;18.106;2022-11-04T10:19:16;100784.53;;;18.54;52.00
14838;BME280;7510;59.296;18.106;2022-11-04T10:26:57;100784.56;;;19.21;49.84
14838;BME280;7510;59.296;18.106;2022-11-04T10:30:27;100779.50;;;19.00;50.38
14838;BME280;7510;59.296;18.106;2022-11-04T10:32:29;100779.84;;;18.22;50.92
14838;BME280;7510;59.296;18.106;2022-11-04T10:34:58;100781.97;;;18.68;50.21
14838;BME280;7510;59.296;18.106;2022-11-04T10:37:26;100786.59;;;19.06;49.94
14838;BME280;7510;59.296;18.106;2022-11-04T10:39:59;100754.63;;;18.20;50.24
14838;BME280;7510;59.296;18.106;2022-11-04T10:42:26;100788.66;;;19.47;48.55
14838;BME280;7510;59.296;18.106;2022-11-04T10:44:51;100776.66;;;19.10;49.03
14838;BME280;7510;59.296;18.106;2022-11-04T10:52:35;100782.38;;;18.51;50.96
14838;BME280;7510;59.296;18.106;2022-11-04T10:55:03;100739.25;;;18.33;50.61
14838;BME280;7510;59.296;18.106;2022-11-04T10:57:35;100782.94;;;19.43;49.25
14838;BME280;7510;59.296;18.106;2022-11-04T11:00:03;100766.63;;;19.80;47.97
14838;BME280;7510;59.296;18.106;2022-11-04T11:07:45;100763.34;;;18.31;51.25
14838;BME280;7510;59.296;18.106;2022-11-04T11:10:31;100772.59;;;19.07;49.87
14838;BME280;7510;59.296;18.106;2022-11-04T11:13:03;100771.13;;;18.86;50.64
14838;BME280;7510;59.296;18.106;2022-11-04T11:18:16;100771.56;;;19.03;50.00
14838;BME280;7510;59.296;18.106;2022-11-04T11:20:48;100767.78;;;18.94;49.61
14838;BME280;7510;59.296;18.106;2022-11-04T11:25:59;100774.31;;;18.31;51.22
14838;BME280;7510;59.296;18.106;2022-11-04T11:28:25;100777.28;;;18.73;50.76
14838;BME280;7510;59.296;18.106;2022-11-04T11:30:59;100755.72;;;18.95;49.76
14838;BME280;7510;59.296;18.106;2022-11-04T11:33:30;100763.19;;;19.18;49.15
14838;BME280;7510;59.296;18.106;2022-11-04T11:36:13;100762.53;;;18.64;51.06
14838;BME280;7510;59.296;18.106;2022-11-04T11:39:19;100763.91;;;18.28;51.21
14838;BME280;7510;59.296;18.106;2022-11-04T11:47:02;100757.63;;;19.28;49.97
14838;BME280;7510;59.296;18.106;2022-11-04T11:49:31;100748.91;;;18.59;50.43
14838;BME280;7510;59.296;18.106;2022-11-04T11:54:42;100760.69;;;18.22;52.35
14838;BME280;7510;59.296;18.106;2022-11-04T11:57:41;100751.78;;;18.78;51.16
14838;BME280;7510;59.296;18.106;2022-11-04T12:00:12;100734.06;;;18.65;51.43
14838;BME280;7510;59.296;18.106;2022-11-04T12:02:46;100748.94;;;19.44;50.33
14838;BME280;7510;59.296;18.106;2022-11-04T12:05:16;100745.63;;;18.14;53.77
14838;BME280;7510;59.296;18.106;2022-11-04T12:10:41;100748.75;;;18.79;52.42
14838;BME280;7510;59.296;18.106;2022-11-04T12:13:22;100728.38;;;18.90;51.99
14838;BME280;7510;59.296;18.106;2022-11-04T12:15:53;100739.53;;;19.27;51.04
14838;BME280;7510;59.296;18.106;2022-11-04T12:21:22;100741.56;;;19.87;50.36
14838;BME280;7510;59.296;18.106;2022-11-04T12:31:46;100741.88;;;19.10;51.53
14838;BME280;7510;59.296;18.106;2022-11-04T12:37:33;100744.50;;;18.97;52.14
14838;BME280;7510;59.296;18.106;2022-11-04T13:13:06;100739.47;;;19.04;51.85
14838;BME280;7510;59.296;18.106;2022-11-04T13:15:42;100721.16;;;18.71;52.59
14838;BME280;7510;59.296;18.106;2022-11-04T13:18:13;100742.13;;;18.52;53.35
14838;BME280;7510;59.296;18.106;2022-11-04T13:20:43;100715.59;;;18.81;52.08
14838;BME280;7510;59.296;18.106;2022-11-04T13:23:23;100721.84;;;17.66;55.23
14838;BME280;7510;59.296;18.106;2022-11-04T13:25:51;100736.72;;;17.99;54.85
14838;BME280;7510;59.296;18.106;2022-11-04T13:28:19;100752.28;;;17.98;54.83
14838;BME280;7510;59.296;18.106;2022-11-04T13:33:53;100722.66;;;18.53;52.84
14838;BME280;7510;59.296;18.106;2022-11-04T13:38:50;100726.16;;;18.64;53.46
14838;BME280;7510;59.296;18.106;2022-11-04T13:41:35;100729.84;;;18.49;53.55
14838;BME280;7510;59.296;18.106;2022-11-04T13:44:14;100734.22;;;18.50;53.84
14838;BME280;7510;59.296;18.106;2022-11-04T13:46:46;100734.03;;;17.84;55.62
14838;BME280;7510;59.296;18.106;2022-11-04T13:49:30;100721.47;;;18.69;53.31
14838;BME280;7510;59.296;18.106;2022-11-04T13:52:07;100730.63;;;18.12;55.40
14838;BME280;7510;59.296;18.106;2022-11-04T13:54:43;100723.09;;;18.70;53.22
14838;BME280;7510;59.296;18.106;2022-11-04T13:57:18;100726.81;;;18.51;53.94
14838;BME280;7510;59.296;18.106;2022-11-04T14:02:51;100723.19;;;18.60;53.65
14838;BME280;7510;59.296;18.106;2022-11-04T14:10:47;100746.09;;;18.36;54.24
14838;BME280;7510;59.296;18.106;2022-11-04T14:18:46;100755.16;;;17.73;56.17
14838;BME280;7510;59.296;18.106;2022-11-04T14:23:40;100739.44;;;17.94;55.79
14838;BME280;7510;59.296;18.106;2022-11-04T14:26:11;100743.38;;;17.73;55.90
14838;BME280;7510;59.296;18.106;2022-11-04T14:28:41;100730.25;;;17.75;55.82
14838;BME280;7510;59.296;18.106;2022-11-04T14:31:09;100746.19;;;17.58;56.00
14838;BME280;7510;59.296;18.106;2022-11-04T14:33:51;100737.69;;;18.13;55.19
14838;BME280;7510;59.296;18.106;2022-11-04T14:38:43;100735.75;;;18.18;54.34
14838;BME280;7510;59.296;18.106;2022-11-04T14:43:54;100749.34;;;17.90;55.41
14838;BME280;7510;59.296;18.106;2022-11-04T14:46:23;100680.00;;;17.66;54.48
14838;BME280;7510;59.296;18.106;2022-11-04T14:48:53;100754.94;;;17.60;56.21
14838;BME280;7510;59.296;18.106;2022-11-04T14:51:31;100741.84;;;17.42;56.41
14838;BME280;7510;59.296;18.106;2022-11-04T14:54:19;100752.56;;;17.97;55.28
14838;BME280;7510;59.296;18.106;2022-11-04T14:56:45;100751.63;;;17.68;55.91
14838;BME280;7510;59.296;18.106;2022-11-04T14:59:20;100751.53;;;17.83;55.39
14838;BME280;7510;59.296;18.106;2022-11-04T15:01:47;100745.94;;;18.08;55.15
14838;BME280;7510;59.296;18.106;2022-11-04T15:04:28;100743.75;;;18.10;54.79
14838;BME280;7510;59.296;18.106;2022-11-04T15:07:00;100744.56;;;17.57;55.82
14838;BME280;7510;59.296;18.106;2022-11-04T15:14:51;100741.03;;;18.05;55.29
14838;BME280;7510;59.296;18.106;2022-11-04T15:17:18;100723.84;;;17.21;57.37
14838;BME280;7510;59.296;18.106;2022-11-04T15:19:48;100747.94;;;17.29;57.59
14838;BME280;7510;59.296;18.106;2022-11-04T15:22:15;100728.06;;;17.77;56.01
14838;BME280;7510;59.296;18.106;2022-11-04T15:24:41;100738.56;;;18.08;55.13
14838;BME280;7510;59.296;18.106;2022-11-04T15:27:16;100736.16;;;18.02;55.34
14838;BME280;7510;59.296;18.106;2022-11-04T15:30:02;100743.50;;;17.43;57.20
14838;BME280;7510;59.296;18.106;2022-11-04T15:32:28;100733.63;;;17.57;56.59
14838;BME280;7510;59.296;18.106;2022-11-04T15:34:54;100750.69;;;17.87;55.95
14838;BME280;7510;59.296;18.106;2022-11-04T15:37:22;100741.56;;;17.53;56.76
14838;BME280;7510;59.296;18.106;2022-11-04T15:39:50;100749.56;;;17.30;58.14
14838;BME280;7510;59.296;18.106;2022-11-04T15:42:21;100750.91;;;17.18;58.33
14838;BME280;7510;59.296;18.106;2022-11-04T15:45:28;100748.75;;;17.93;56.31
14838;BME280;7510;59.296;18.106;2022-11-04T15:48:46;100752.72;;;18.25;55.29
14838;BME280;7510;59.296;18.106;2022-11-04T15:51:17;100751.72;;;17.38;57.99
14838;BME280;7510;59.296;18.106;2022-11-04T15:53:57;100759.25;;;17.71;57.13
14838;BME280;7510;59.296;18.106;2022-11-04T15:56:27;100722.25;;;17.30;57.96
14838;BME280;7510;59.296;18.106;2022-11-04T15:58:57;100751.47;;;17.98;56.43
14838;BME280;7510;59.296;18.106;2022-11-04T16:01:24;100736.94;;;18.02;55.69